Karlsruhe, North Dakota
Current Conditions -  °F | °C
As of 8:18 AM on Thursday 30 Oct 2014 (Local Time) from KMOT Reporting Station
Overcast Overcast  
Wind Chill: 24°   Ceiling: 500
Heat Index: 32°   Visibility: 8mi
Dew Point: 29°   Wind: 9mph
Humidity: 88%   Direction: 340°NNW
Pressure: 30.28"   Gusts: NA
Location:  48.09°N, 100.62°W
Report Text: KMOT 301318Z 34008KT 8SM OVC005 00/M02 A3028 RMK AO2 T00001017
Loading
Personal Weather Stations






























Interactive Weather Map
Tropical Storm Tracking
New forecast layout! Learn more

10-Day Weather Forecast

Advertisements
Track Severe Weather on mobile